Aviation Digital Data Service (ADDS)

Output produced by METARs form (1905 UTC 18 April 2019)
found at http://www.aviationweather.gov/metar/data/
 
METAR text: DNAA 181800Z 18008KT 8000 NSC 34/18 Q1009 NOSIG
Conditions at: DNAA (ABUJA , NG) observed 1800 UTC 18 April 2019
Temperature: 34.0°C (93°F)
Dewpoint: 18.0°C (64°F) [RH = 39%]
Pressure (altimeter): 29.79 inches Hg (1009.0 mb)
Winds: from the S (180 degrees) at 9 MPH (8 knots; 4.1 m/s)
Visibility: 5 miles ( 8 km)
Ceiling: at least 12,000 feet AGL
Clouds: sky clear below 12,000 feet AGL
Weather: no significant weather observed at this time

METAR text: DNAA 181600Z 18003KT 090V210 9999 FEW016 38/07 Q1008 NOSIG
Conditions at: DNAA (ABUJA , NG) observed 1600 UTC 18 April 2019
Temperature: 38.0°C (100°F)
Dewpoint: 7.0°C (45°F) [RH = 15%]
Pressure (altimeter): 29.76 inches Hg (1008.0 mb)
Winds: from the S (180 degrees) at 3 MPH (3 knots; 1.5 m/s)
Visibility: 6 or more miles (10+ km)
Ceiling: at least 12,000 feet AGL
Clouds: few clouds at 1600 feet AGL
Weather: no significant weather observed at this time

METAR text: DNAA 181400Z 08003KT 9999 FEW016 38/15 Q1009 NOSIG
Conditions at: DNAA (ABUJA , NG) observed 1400 UTC 18 April 2019
Temperature: 38.0°C (100°F)
Dewpoint: 15.0°C (59°F) [RH = 26%]
Pressure (altimeter): 29.79 inches Hg (1009.0 mb)
Winds: from the E (80 degrees) at 3 MPH (3 knots; 1.5 m/s)
Visibility: 6 or more miles (10+ km)
Ceiling: at least 12,000 feet AGL
Clouds: few clouds at 1600 feet AGL
Weather: no significant weather observed at this time

METAR text: DNAA 181200Z 28006KT 230V340 9999 FEW014 35/17 Q1011 NOSIG
Conditions at: DNAA (ABUJA , NG) observed 1200 UTC 18 April 2019
Temperature: 35.0°C (95°F)
Dewpoint: 17.0°C (63°F) [RH = 34%]
Pressure (altimeter): 29.85 inches Hg (1011.0 mb)
Winds: from the W (280 degrees) at 7 MPH (6 knots; 3.1 m/s)
Visibility: 6 or more miles (10+ km)
Ceiling: at least 12,000 feet AGL
Clouds: few clouds at 1400 feet AGL
Weather: no significant weather observed at this time

METAR text: DNAA 181000Z 26004KT 9999 FEW011 34/20 Q1013 NOSIG
Conditions at: DNAA (ABUJA , NG) observed 1000 UTC 18 April 2019
Temperature: 34.0°C (93°F)
Dewpoint: 20.0°C (68°F) [RH = 44%]
Pressure (altimeter): 29.91 inches Hg (1013.0 mb)
Winds: from the W (260 degrees) at 5 MPH (4 knots; 2.1 m/s)
Visibility: 6 or more miles (10+ km)
Ceiling: at least 12,000 feet AGL
Clouds: few clouds at 1100 feet AGL
Weather: no significant weather observed at this time

METAR text: DNAA 180900Z 29005KT 220V340 CAVOK 32/21 Q1013 NOSIG
Conditions at: DNAA (ABUJA , NG) observed 0900 UTC 18 April 2019
Temperature: 32.0°C (90°F)
Dewpoint: 21.0°C (70°F) [RH = 52%]
Pressure (altimeter): 29.91 inches Hg (1013.0 mb)
Winds: from the WNW (290 degrees) at 6 MPH (5 knots; 2.6 m/s)
Visibility: 6 or more miles (10+ km)
Ceiling: ceiling and visibility are OK
Clouds: unknown
Weather: no significant weather observed at this time

METAR text: DNAA 180800Z VRB02KT 8000 NSC 31/21 Q1013 NOSIG
Conditions at: DNAA (ABUJA , NG) observed 0800 UTC 18 April 2019
Temperature: 31.0°C (88°F)
Dewpoint: 21.0°C (70°F) [RH = 55%]
Pressure (altimeter): 29.91 inches Hg (1013.0 mb)
Winds: variable direction winds at 2 MPH (2 knots; 1.0 m/s)
Visibility: 5 miles ( 8 km)
Ceiling: at least 12,000 feet AGL
Clouds: sky clear below 12,000 feet AGL
Weather: no significant weather observed at this time

METAR text: DNAA 180700Z VRB01KT 7000 NSC 28/20 Q1012 NOSIG
Conditions at: DNAA (ABUJA , NG) observed 0700 UTC 18 April 2019
Temperature: 28.0°C (82°F)
Dewpoint: 20.0°C (68°F) [RH = 62%]
Pressure (altimeter): 29.88 inches Hg (1012.0 mb)
Winds: variable direction winds at 1 MPH (1 knots; 0.5 m/s)
Visibility: 4 miles ( 7 km)
Ceiling: at least 12,000 feet AGL
Clouds: sky clear below 12,000 feet AGL
Weather: no significant weather observed at this time

METAR text: DNAA 180600Z 05003KT 360V070 7000 NSC 26/20 Q1011 NOSIG
Conditions at: DNAA (ABUJA , NG) observed 0600 UTC 18 April 2019
Temperature: 26.0°C (79°F)
Dewpoint: 20.0°C (68°F) [RH = 70%]
Pressure (altimeter): 29.85 inches Hg (1011.0 mb)
Winds: from the NE (50 degrees) at 3 MPH (3 knots; 1.5 m/s)
Visibility: 4 miles ( 7 km)
Ceiling: at least 12,000 feet AGL
Clouds: sky clear below 12,000 feet AGL
Weather: no significant weather observed at this time

METAR text: DNAA 180500Z 08004KT 7000 NSC 26/20 Q1011 NOSIG
Conditions at: DNAA (ABUJA , NG) observed 0500 UTC 18 April 2019
Temperature: 26.0°C (79°F)
Dewpoint: 20.0°C (68°F) [RH = 70%]
Pressure (altimeter): 29.85 inches Hg (1011.0 mb)
Winds: from the E (80 degrees) at 5 MPH (4 knots; 2.1 m/s)
Visibility: 4 miles ( 7 km)
Ceiling: at least 12,000 feet AGL
Clouds: sky clear below 12,000 feet AGL
Weather: no significant weather observed at this time

METAR text: DNAA 180400Z 07004KT 010V080 7000 NSC 26/20 Q1011 NOSIG
Conditions at: DNAA (ABUJA , NG) observed 0400 UTC 18 April 2019
Temperature: 26.0°C (79°F)
Dewpoint: 20.0°C (68°F) [RH = 70%]
Pressure (altimeter): 29.85 inches Hg (1011.0 mb)
Winds: from the ENE (70 degrees) at 5 MPH (4 knots; 2.1 m/s)
Visibility: 4 miles ( 7 km)
Ceiling: at least 12,000 feet AGL
Clouds: sky clear below 12,000 feet AGL
Weather: no significant weather observed at this time

METAR text: DNAA 180100Z 08003KT 8000 NSC 28/19 Q1011 NOSIG
Conditions at: DNAA (ABUJA , NG) observed 0100 UTC 18 April 2019
Temperature: 28.0°C (82°F)
Dewpoint: 19.0°C (66°F) [RH = 58%]
Pressure (altimeter): 29.85 inches Hg (1011.0 mb)
Winds: from the E (80 degrees) at 3 MPH (3 knots; 1.5 m/s)
Visibility: 5 miles ( 8 km)
Ceiling: at least 12,000 feet AGL
Clouds: sky clear below 12,000 feet AGL
Weather: no significant weather observed at this time

METAR text: DNAA 172200Z 12005KT 8000 NSC 31/17 Q1012 NOSIG
Conditions at: DNAA (ABUJA , NG) observed 2200 UTC 17 April 2019
Temperature: 31.0°C (88°F)
Dewpoint: 17.0°C (63°F) [RH = 43%]
Pressure (altimeter): 29.88 inches Hg (1012.0 mb)
Winds: from the ESE (120 degrees) at 6 MPH (5 knots; 2.6 m/s)
Visibility: 5 miles ( 8 km)
Ceiling: at least 12,000 feet AGL
Clouds: sky clear below 12,000 feet AGL
Weather: no significant weather observed at this time

METAR text: DNAA 172100Z 13005KT 8000 NSC 32/16 Q1012 NOSIG
Conditions at: DNAA (ABUJA , NG) observed 2100 UTC 17 April 2019
Temperature: 32.0°C (90°F)
Dewpoint: 16.0°C (61°F) [RH = 38%]
Pressure (altimeter): 29.88 inches Hg (1012.0 mb)
Winds: from the SE (130 degrees) at 6 MPH (5 knots; 2.6 m/s)
Visibility: 5 miles ( 8 km)
Ceiling: at least 12,000 feet AGL
Clouds: sky clear below 12,000 feet AGL
Weather: no significant weather observed at this time

METAR text: DNAA 171900Z 20008KT 8000 NSC 34/16 Q1010 NOSIG
Conditions at: DNAA (ABUJA , NG) observed 1900 UTC 17 April 2019
Temperature: 34.0°C (93°F)
Dewpoint: 16.0°C (61°F) [RH = 34%]
Pressure (altimeter): 29.82 inches Hg (1010.0 mb)
Winds: from the SSW (200 degrees) at 9 MPH (8 knots; 4.1 m/s)
Visibility: 5 miles ( 8 km)
Ceiling: at least 12,000 feet AGL
Clouds: sky clear below 12,000 feet AGL
Weather: no significant weather observed at this time

METAR text: DNAA 171700Z 09003KT 040V140 4000 HZ NSC 37/12 Q1008 NOSIG
Conditions at: DNAA (ABUJA , NG) observed 1700 UTC 17 April 2019
Temperature: 37.0°C (99°F)
Dewpoint: 12.0°C (54°F) [RH = 22%]
Pressure (altimeter): 29.76 inches Hg (1008.0 mb)
Winds: from the E (90 degrees) at 3 MPH (3 knots; 1.5 m/s)
Visibility: 2.49 miles (4.01 km)
Ceiling: at least 12,000 feet AGL
Clouds: sky clear below 12,000 feet AGL
Weather: HZ  (haze)

METAR text: DNAA 171600Z 17005KT 110V270 4000 HZ NSC 38/11 Q1008 TEMPO 3000
Conditions at: DNAA (ABUJA , NG) observed 1600 UTC 17 April 2019
Temperature: 38.0°C (100°F)
Dewpoint: 11.0°C (52°F) [RH = 20%]
Pressure (altimeter): 29.76 inches Hg (1008.0 mb)
Winds: from the S (170 degrees) at 6 MPH (5 knots; 2.6 m/s)
Visibility: 2.49 miles (4.01 km)
Ceiling: at least 12,000 feet AGL
Clouds: sky clear below 12,000 feet AGL
Weather: HZ  (haze)

METAR text: DNAA 171500Z 12004KT 4000 HZ FEW015 37/13 Q1008 TEMPO 3000
Conditions at: DNAA (ABUJA , NG) observed 1500 UTC 17 April 2019
Temperature: 37.0°C (99°F)
Dewpoint: 13.0°C (55°F) [RH = 24%]
Pressure (altimeter): 29.76 inches Hg (1008.0 mb)
Winds: from the ESE (120 degrees) at 5 MPH (4 knots; 2.1 m/s)
Visibility: 2.49 miles (4.01 km)
Ceiling: at least 12,000 feet AGL
Clouds: few clouds at 1500 feet AGL
Weather: HZ  (haze)

METAR text: DNAA 171400Z 33003KT 5000 HZ FEW015 37/16 Q1009 TEMPO 3000
Conditions at: DNAA (ABUJA , NG) observed 1400 UTC 17 April 2019
Temperature: 37.0°C (99°F)
Dewpoint: 16.0°C (61°F) [RH = 29%]
Pressure (altimeter): 29.79 inches Hg (1009.0 mb)
Winds: from the NNW (330 degrees) at 3 MPH (3 knots; 1.5 m/s)
Visibility: 3 miles ( 5 km)
Ceiling: at least 12,000 feet AGL
Clouds: few clouds at 1500 feet AGL
Weather: HZ  (haze)

METAR text: DNAA 171300Z 13005KT 6000 FEW014 37/17 Q1010 TEMPO 5000
Conditions at: DNAA (ABUJA , NG) observed 1300 UTC 17 April 2019
Temperature: 37.0°C (99°F)
Dewpoint: 17.0°C (63°F) [RH = 31%]
Pressure (altimeter): 29.82 inches Hg (1010.0 mb)
Winds: from the SE (130 degrees) at 6 MPH (5 knots; 2.6 m/s)
Visibility: 4 miles ( 6 km)
Ceiling: at least 12,000 feet AGL
Clouds: few clouds at 1400 feet AGL
Weather: no significant weather observed at this time

METAR text: DNAA 171200Z 33004KT 8000 FEW014 35/18 Q1011 NOSIG
Conditions at: DNAA (ABUJA , NG) observed 1200 UTC 17 April 2019
Temperature: 35.0°C (95°F)
Dewpoint: 18.0°C (64°F) [RH = 37%]
Pressure (altimeter): 29.85 inches Hg (1011.0 mb)
Winds: from the NNW (330 degrees) at 5 MPH (4 knots; 2.1 m/s)
Visibility: 5 miles ( 8 km)
Ceiling: at least 12,000 feet AGL
Clouds: few clouds at 1400 feet AGL
Weather: no significant weather observed at this time

METAR text: DNAA 171000Z 27006KT 230V320 8000 NSC 33/20 Q1013 NOSIG
Conditions at: DNAA (ABUJA , NG) observed 1000 UTC 17 April 2019
Temperature: 33.0°C (91°F)
Dewpoint: 20.0°C (68°F) [RH = 46%]
Pressure (altimeter): 29.91 inches Hg (1013.0 mb)
Winds: from the W (270 degrees) at 7 MPH (6 knots; 3.1 m/s)
Visibility: 5 miles ( 8 km)
Ceiling: at least 12,000 feet AGL
Clouds: sky clear below 12,000 feet AGL
Weather: no significant weather observed at this time

METAR text: DNAA 170900Z 27004KT 240V300 8000 NSC 31/21 Q1013 NOSIG
Conditions at: DNAA (ABUJA , NG) observed 0900 UTC 17 April 2019
Temperature: 31.0°C (88°F)
Dewpoint: 21.0°C (70°F) [RH = 55%]
Pressure (altimeter): 29.91 inches Hg (1013.0 mb)
Winds: from the W (270 degrees) at 5 MPH (4 knots; 2.1 m/s)
Visibility: 5 miles ( 8 km)
Ceiling: at least 12,000 feet AGL
Clouds: sky clear below 12,000 feet AGL
Weather: no significant weather observed at this time

Forecast for: DNAA (ABUJA , NG)
Text: TAF DNAA 181530Z 1818/1924 03003KT 9999 FEW013
Forecast period: 1800 to 2000 UTC 18 April 2019
Forecast type: FROM: standard forecast or significant change
Winds: from the NNE (30 degrees) at 3 MPH (3 knots; 1.5 m/s)
Visibility: 6 or more miles 10+ km)
Ceiling: at least 12,000 feet AGL
Clouds: few clouds at 1300 feet AGL
Weather: no significant weather forecast for this period
Text: BECMG 1820/1822 12010KT
Forecast period: 2000 UTC 18 April 2019 to 0000 UTC 20 April 2019
Forecast type: BECOMING: Conditions expected to become as follows by 2200 UTC 18 April 2019
Winds: from the ESE (120 degrees) at 12 MPH (10 knots; 5.1 m/s)
Visibility: 6 or more miles 10+ km)
Ceiling: at least 12,000 feet AGL
Clouds: few clouds at 1300 feet AGL
Weather: no significant weather forecast for this period
Text: PROB30
Forecast period: 0300 to 0600 UTC 19 April 2019
Forecast type: TEMPORARY: The following changes expected for less than half the time period
Visibility: 3 miles (5 km)
Ceiling: unknown
Clouds: missing
Weather: HZ  (haze)